createdAt,value
2022-10-01T00:00:18.048Z,24.30
2022-10-01T00:02:47.697Z,24.30
2022-10-01T00:05:17.329Z,24.40
2022-10-01T00:07:47.883Z,24.40
2022-10-01T00:10:18.285Z,24.40
2022-10-01T00:12:50.219Z,24.50
2022-10-01T00:15:23.389Z,24.50
2022-10-01T00:17:52.956Z,24.60
2022-10-01T00:20:22.702Z,24.70
2022-10-01T00:22:53.054Z,24.70
2022-10-01T00:25:23.439Z,24.70
2022-10-01T00:27:53.417Z,24.70
2022-10-01T00:30:23.296Z,24.80
2022-10-01T00:32:56.782Z,24.90
2022-10-01T00:35:26.624Z,24.90
2022-10-01T00:37:56.526Z,24.90
2022-10-01T00:40:27.561Z,25.00
2022-10-01T00:42:57.417Z,25.00
2022-10-01T00:45:27.417Z,25.00
2022-10-01T00:48:00.735Z,25.00
2022-10-01T00:50:39.748Z,25.00
2022-10-01T00:53:14.384Z,25.00
2022-10-01T00:55:48.117Z,25.00
2022-10-01T00:58:18.188Z,25.00
2022-10-01T01:00:48.965Z,25.10
2022-10-01T01:03:19.332Z,25.10
2022-10-01T01:05:49.795Z,25.10
2022-10-01T01:08:20.294Z,25.00
2022-10-01T01:11:25.425Z,25.10
2022-10-01T01:14:21.679Z,25.10
2022-10-01T01:16:59.015Z,25.10
2022-10-01T01:20:02.346Z,25.20
2022-10-01T01:22:36.675Z,25.20
2022-10-01T01:25:18.407Z,25.20
2022-10-01T01:40:30.081Z,25.20
2022-10-01T01:43:02.811Z,25.50
2022-10-01T01:45:35.123Z,25.50
2022-10-01T01:48:06.350Z,25.60
2022-10-01T01:50:44.673Z,25.70
2022-10-01T01:53:14.451Z,25.70
2022-10-01T01:55:45.896Z,25.80
2022-10-01T01:58:15.748Z,25.80
2022-10-01T02:00:45.710Z,25.90
2022-10-01T02:03:15.267Z,26.00
2022-10-01T02:05:59.932Z,26.10
2022-10-01T02:08:49.116Z,26.10
2022-10-01T02:11:30.859Z,26.20
2022-10-01T02:14:32.929Z,26.30
2022-10-01T02:17:33.446Z,26.40
2022-10-01T02:20:42.085Z,26.50
2022-10-01T02:23:17.875Z,26.50
2022-10-01T02:25:56.994Z,26.60
2022-10-01T02:28:27.145Z,26.60
2022-10-01T02:30:59.507Z,26.70
2022-10-01T02:33:33.121Z,26.80
2022-10-01T02:36:06.789Z,26.80
2022-10-01T02:38:39.635Z,26.80
2022-10-01T02:41:13.333Z,26.90
2022-10-01T02:43:58.372Z,26.90
2022-10-01T02:46:46.270Z,27.00
2022-10-01T02:49:16.758Z,27.00
2022-10-01T02:52:21.642Z,27.10
2022-10-01T02:55:06.875Z,27.20
2022-10-01T02:57:38.063Z,27.20
2022-10-01T03:00:20.521Z,27.30
2022-10-01T03:02:51.522Z,27.30
2022-10-01T03:05:22.121Z,27.40
2022-10-01T03:07:51.891Z,27.40
2022-10-01T03:10:21.548Z,27.40
2022-10-01T03:12:52.572Z,27.40
2022-10-01T03:15:22.512Z,27.40
2022-10-01T03:17:55.714Z,27.40
2022-10-01T03:20:25.688Z,27.50
2022-10-01T03:22:55.302Z,27.60
2022-10-01T03:25:24.853Z,27.60
2022-10-01T03:27:54.561Z,27.70
2022-10-01T03:30:24.099Z,27.70
2022-10-01T03:32:53.684Z,27.80
2022-10-01T03:35:23.325Z,27.80
2022-10-01T03:37:52.845Z,27.80
2022-10-01T03:40:22.431Z,27.80
2022-10-01T03:42:52.791Z,27.80
2022-10-01T03:45:22.372Z,27.90
2022-10-01T03:47:55.684Z,27.90
2022-10-01T03:50:26.294Z,28.00
2022-10-01T03:52:56.813Z,28.10
2022-10-01T03:55:27.002Z,28.20
2022-10-01T03:57:57.165Z,28.20
2022-10-01T04:00:28.069Z,28.20
2022-10-01T04:02:57.989Z,28.30
2022-10-01T04:05:28.026Z,28.30
2022-10-01T04:07:57.944Z,28.40
2022-10-01T04:10:27.838Z,28.40
2022-10-01T04:12:57.727Z,28.40
2022-10-01T04:15:27.699Z,28.50
2022-10-01T04:17:57.532Z,28.50
2022-10-01T04:20:27.806Z,28.60
2022-10-01T04:22:57.810Z,28.60
2022-10-01T04:25:28.007Z,28.60
2022-10-01T04:28:06.463Z,28.70
2022-10-01T04:30:39.344Z,28.70
2022-10-01T04:33:10.898Z,28.70
2022-10-01T04:35:40.994Z,28.80
2022-10-01T04:38:18.779Z,28.80
2022-10-01T04:40:49.209Z,28.80
2022-10-01T04:43:19.061Z,28.80
2022-10-01T04:45:48.960Z,28.90
2022-10-01T04:48:18.977Z,28.90
2022-10-01T04:50:48.965Z,28.90
2022-10-01T04:53:19.910Z,28.90
2022-10-01T04:55:49.469Z,28.90
2022-10-01T04:58:20.353Z,28.90
2022-10-01T05:00:51.893Z,29.00
2022-10-01T05:03:21.499Z,28.90
2022-10-01T05:05:51.119Z,28.90
2022-10-01T05:08:20.710Z,28.80
2022-10-01T05:10:50.349Z,28.70
2022-10-01T05:13:19.997Z,28.70
2022-10-01T05:15:53.746Z,28.80
2022-10-01T05:18:23.493Z,28.80
2022-10-01T05:20:53.092Z,28.70
2022-10-01T05:23:22.749Z,28.70
2022-10-01T05:25:52.329Z,28.70
2022-10-01T05:28:22.792Z,28.80
2022-10-01T05:30:52.812Z,28.90
2022-10-01T05:33:22.372Z,29.00
2022-10-01T05:35:52.390Z,29.00
2022-10-01T05:38:22.331Z,29.00
2022-10-01T05:40:51.972Z,29.10
2022-10-01T05:43:21.575Z,29.10
2022-10-01T05:45:52.934Z,29.10
2022-10-01T05:48:23.466Z,29.10
2022-10-01T05:50:53.487Z,29.20
2022-10-01T05:53:25.304Z,29.20
2022-10-01T05:55:55.243Z,29.20
2022-10-01T05:58:25.535Z,29.30
2022-10-01T06:00:58.229Z,29.30
2022-10-01T06:03:30.666Z,29.30
2022-10-01T06:06:00.629Z,29.30
2022-10-01T06:08:30.569Z,29.30
2022-10-01T06:11:04.595Z,29.20
2022-10-01T06:13:34.854Z,29.20
2022-10-01T06:16:05.011Z,29.20
2022-10-01T06:18:35.164Z,29.20
2022-10-01T06:21:05.387Z,29.20
2022-10-01T06:23:35.446Z,29.20
2022-10-01T06:26:10.465Z,29.20
2022-10-01T06:28:40.348Z,29.20
2022-10-01T06:31:10.216Z,29.20
2022-10-01T06:33:40.134Z,29.20
2022-10-01T06:36:10.072Z,29.20
2022-10-01T06:38:40.984Z,29.20
2022-10-01T06:41:11.678Z,29.20
2022-10-01T06:43:41.650Z,29.20
2022-10-01T06:46:12.115Z,29.30
2022-10-01T06:48:42.113Z,29.30
2022-10-01T06:51:11.942Z,29.30
2022-10-01T06:53:42.723Z,29.40
2022-10-01T06:56:12.359Z,29.40
2022-10-01T06:58:44.174Z,29.60
2022-10-01T07:01:14.024Z,29.60
2022-10-01T07:03:43.622Z,29.70
2022-10-01T07:06:14.861Z,29.80
2022-10-01T07:08:44.416Z,29.80
2022-10-01T07:11:13.955Z,30.00
2022-10-01T07:13:43.696Z,30.00
2022-10-01T07:16:13.313Z,30.00
2022-10-01T07:18:43.067Z,30.00
2022-10-01T07:21:12.713Z,30.10
2022-10-01T07:23:42.288Z,30.00
2022-10-01T07:26:12.090Z,30.00
2022-10-01T07:28:48.352Z,29.90
2022-10-01T07:31:18.216Z,29.90
2022-10-01T07:33:47.828Z,29.80
2022-10-01T07:36:17.515Z,29.80
2022-10-01T07:38:50.113Z,29.70
2022-10-01T07:41:19.830Z,29.70
2022-10-01T07:43:54.336Z,29.60
2022-10-01T07:46:23.931Z,29.60
2022-10-01T07:48:53.741Z,29.60
2022-10-01T07:51:23.369Z,29.60
2022-10-01T07:53:54.198Z,29.50
2022-10-01T07:56:24.193Z,29.50
2022-10-01T07:58:58.299Z,29.50
2022-10-01T08:01:28.701Z,29.50
2022-10-01T08:03:58.617Z,29.50
2022-10-01T08:06:28.644Z,29.50
2022-10-01T08:08:58.560Z,29.40
2022-10-01T08:11:28.508Z,29.40
2022-10-01T08:13:58.961Z,29.30
2022-10-01T08:16:30.794Z,29.30
2022-10-01T08:19:01.067Z,29.20
2022-10-01T08:21:31.633Z,29.20
2022-10-01T08:24:01.650Z,29.10
2022-10-01T08:26:31.750Z,29.10
2022-10-01T08:29:02.076Z,29.10
2022-10-01T08:31:32.165Z,29.10
2022-10-01T08:34:02.275Z,29.10
2022-10-01T08:36:32.445Z,29.10
2022-10-01T08:39:04.418Z,29.10
2022-10-01T08:42:10.152Z,29.10
2022-10-01T08:44:47.643Z,29.10
2022-10-01T08:47:33.364Z,29.10
2022-10-01T08:50:21.340Z,29.00
2022-10-01T08:52:57.819Z,29.00
2022-10-01T08:55:31.157Z,29.00
2022-10-01T08:58:07.507Z,29.00
2022-10-01T09:00:42.517Z,28.90
2022-10-01T09:03:15.788Z,28.90
2022-10-01T09:06:16.067Z,28.90
2022-10-01T09:09:25.495Z,28.90
2022-10-01T09:12:24.201Z,28.90
2022-10-01T09:15:17.286Z,28.90
2022-10-01T09:18:12.006Z,28.80
2022-10-01T09:20:47.372Z,28.80
2022-10-01T09:23:31.185Z,28.90
2022-10-01T09:26:01.990Z,28.80
2022-10-01T09:28:35.289Z,28.80
2022-10-01T09:31:30.768Z,28.80
2022-10-01T09:34:27.461Z,28.80
2022-10-01T09:37:16.640Z,28.80
2022-10-01T09:40:25.453Z,28.70
2022-10-01T09:42:55.472Z,28.70
2022-10-01T09:45:26.343Z,28.70
2022-10-01T09:47:59.665Z,28.60
2022-10-01T09:50:44.671Z,28.60
2022-10-01T09:53:23.201Z,28.60
2022-10-01T09:56:01.573Z,28.60
2022-10-01T09:58:32.158Z,28.60
2022-10-01T10:01:04.959Z,28.60
2022-10-01T10:03:34.871Z,28.50
2022-10-01T10:06:04.744Z,28.50
2022-10-01T10:08:39.293Z,28.50
2022-10-01T10:11:12.899Z,28.40
2022-10-01T10:13:52.630Z,28.40
2022-10-01T10:16:32.193Z,28.40
2022-10-01T10:19:16.624Z,28.30
2022-10-01T10:21:55.865Z,28.30
2022-10-01T10:24:36.496Z,28.30
2022-10-01T10:27:09.352Z,28.20
2022-10-01T10:29:39.817Z,28.20
2022-10-01T10:32:28.244Z,28.10
2022-10-01T10:35:03.679Z,28.10
2022-10-01T10:37:38.768Z,28.00
2022-10-01T10:40:10.152Z,28.00
2022-10-01T10:42:40.484Z,28.00
2022-10-01T10:45:24.262Z,27.90
2022-10-01T10:47:55.486Z,27.90
2022-10-01T10:50:40.278Z,27.80
2022-10-01T10:53:30.862Z,27.70
2022-10-01T10:56:03.617Z,27.70
2022-10-01T10:58:35.923Z,27.70
2022-10-01T11:01:15.454Z,27.60
2022-10-01T11:03:51.685Z,27.60
2022-10-01T11:06:22.372Z,27.60
2022-10-01T11:09:03.730Z,27.50
2022-10-01T11:12:03.260Z,27.50
2022-10-01T11:14:51.453Z,27.50
2022-10-01T11:18:00.145Z,27.40
2022-10-01T11:21:06.109Z,27.40
2022-10-01T11:24:00.644Z,27.30
2022-10-01T11:27:10.523Z,27.10
2022-10-01T11:30:10.904Z,27.10
2022-10-01T11:33:02.503Z,27.00
2022-10-01T11:35:44.296Z,26.90
2022-10-01T11:38:46.782Z,26.90
2022-10-01T11:41:42.881Z,26.90
2022-10-01T11:44:33.991Z,26.90
2022-10-01T11:47:29.690Z,26.90
2022-10-01T11:50:04.747Z,26.90
2022-10-01T11:53:11.746Z,26.90
2022-10-01T11:56:18.023Z,26.90
2022-10-01T11:58:58.888Z,26.90
2022-10-01T12:01:52.935Z,26.80
2022-10-01T12:04:44.782Z,26.80
2022-10-01T12:07:44.310Z,26.80
2022-10-01T12:10:53.123Z,26.80
2022-10-01T12:13:48.620Z,26.80
2022-10-01T12:16:57.350Z,26.80
2022-10-01T12:19:32.121Z,26.80
2022-10-01T12:22:30.017Z,26.70
2022-10-01T12:25:04.721Z,26.70
2022-10-01T12:28:03.148Z,26.70
2022-10-01T12:30:43.979Z,26.70
2022-10-01T12:33:50.623Z,26.60
2022-10-01T12:36:50.964Z,26.70
2022-10-01T12:39:47.313Z,26.60
2022-10-01T12:42:46.389Z,26.60
2022-10-01T12:45:45.473Z,26.60
2022-10-01T12:48:49.383Z,26.50
2022-10-01T12:51:54.780Z,26.40
2022-10-01T12:55:04.469Z,26.50
2022-10-01T12:58:01.488Z,26.40
2022-10-01T13:00:43.978Z,26.40
2022-10-01T13:03:53.137Z,26.40
2022-10-01T13:06:53.318Z,26.40
2022-10-01T13:09:54.326Z,26.40
2022-10-01T13:13:03.349Z,26.40
2022-10-01T13:15:39.414Z,26.30
2022-10-01T13:18:37.800Z,26.30
2022-10-01T13:21:34.039Z,26.30
2022-10-01T13:24:29.751Z,26.30
2022-10-01T13:27:08.403Z,26.30
2022-10-01T13:30:06.530Z,26.30
2022-10-01T13:32:39.869Z,26.30
2022-10-01T13:35:36.132Z,26.30
2022-10-01T13:38:32.921Z,26.20
2022-10-01T13:41:06.303Z,26.10
2022-10-01T13:43:37.295Z,26.10
2022-10-01T13:46:12.782Z,26.10
2022-10-01T13:48:50.167Z,26.10
2022-10-01T13:51:21.971Z,26.10
2022-10-01T13:54:04.127Z,26.10
2022-10-01T13:56:38.422Z,26.10
2022-10-01T13:59:45.447Z,26.10
2022-10-01T14:02:38.153Z,26.10
2022-10-01T14:05:41.321Z,26.00
2022-10-01T14:08:28.031Z,26.00
2022-10-01T14:11:33.933Z,25.90
2022-10-01T14:14:48.110Z,25.80
2022-10-01T14:17:21.653Z,25.80
2022-10-01T14:19:52.595Z,25.80
2022-10-01T14:22:48.427Z,25.80
2022-10-01T14:25:57.146Z,25.80
2022-10-01T14:29:03.057Z,25.80
2022-10-01T14:31:53.933Z,25.80
2022-10-01T14:34:58.143Z,25.90
2022-10-01T14:37:31.121Z,25.90
2022-10-01T14:40:09.451Z,25.90
2022-10-01T14:42:39.378Z,25.80
2022-10-01T14:45:20.579Z,25.90
2022-10-01T14:47:51.810Z,25.80
2022-10-01T14:50:23.182Z,25.80
2022-10-01T14:52:53.282Z,25.80
2022-10-01T14:55:25.616Z,25.80
2022-10-01T14:57:58.525Z,25.80
2022-10-01T15:00:34.568Z,25.80
2022-10-01T15:03:16.850Z,25.80
2022-10-01T15:05:52.160Z,25.80
2022-10-01T15:08:25.599Z,25.80
2022-10-01T15:11:00.270Z,25.80
2022-10-01T15:13:39.605Z,25.80
2022-10-01T15:16:19.098Z,25.80
2022-10-01T15:18:57.348Z,25.80
2022-10-01T15:21:43.148Z,25.80
2022-10-01T15:24:49.252Z,25.80
2022-10-01T15:27:22.710Z,25.80
2022-10-01T15:29:59.720Z,25.80
2022-10-01T15:32:30.489Z,25.80
2022-10-01T15:35:03.952Z,25.80
2022-10-01T15:37:39.151Z,25.80
2022-10-01T15:40:22.029Z,25.70
2022-10-01T15:43:24.530Z,25.70
2022-10-01T15:46:18.983Z,25.60
2022-10-01T15:48:49.522Z,25.60
2022-10-01T15:51:27.556Z,25.60
2022-10-01T15:54:13.266Z,25.60
2022-10-01T15:56:43.761Z,25.60
2022-10-01T15:59:20.905Z,25.60
2022-10-01T16:01:50.473Z,25.60
2022-10-01T16:04:23.677Z,25.60
2022-10-01T16:06:54.415Z,25.60
2022-10-01T16:09:30.168Z,25.60
2022-10-01T16:12:21.842Z,25.60
2022-10-01T16:15:25.713Z,25.60
2022-10-01T16:18:00.457Z,25.50
2022-10-01T16:20:39.073Z,25.50
2022-10-01T16:23:51.056Z,25.60
2022-10-01T16:26:39.800Z,25.50
2022-10-01T16:29:25.841Z,25.60
2022-10-01T16:31:57.582Z,25.60
2022-10-01T16:34:29.413Z,25.60
2022-10-01T16:36:59.583Z,25.60
2022-10-01T16:39:29.511Z,25.60
2022-10-01T16:42:22.284Z,25.60
2022-10-01T16:44:49.332Z,25.60
2022-10-01T16:47:19.416Z,25.60
2022-10-01T16:49:53.205Z,25.50
2022-10-01T16:52:23.434Z,25.60
2022-10-01T16:54:53.283Z,25.60
2022-10-01T16:57:23.340Z,25.60
2022-10-01T16:59:53.266Z,25.50
2022-10-01T17:02:23.167Z,25.50
2022-10-01T17:04:54.011Z,25.50
2022-10-01T17:07:24.369Z,25.50
2022-10-01T17:09:54.169Z,25.50
2022-10-01T17:12:24.122Z,25.50
2022-10-01T17:14:54.065Z,25.50
2022-10-01T17:17:23.924Z,25.50
2022-10-01T17:19:53.838Z,25.50
2022-10-01T17:22:23.936Z,25.50
2022-10-01T17:24:53.902Z,25.50
2022-10-01T17:27:23.834Z,25.50
2022-10-01T17:29:53.811Z,25.50
2022-10-01T17:32:23.648Z,25.30
2022-10-01T17:34:55.459Z,25.20
2022-10-01T17:37:25.628Z,25.10
2022-10-01T17:39:55.211Z,25.00
2022-10-01T17:42:25.104Z,24.90
2022-10-01T17:44:56.280Z,24.80
2022-10-01T17:47:25.899Z,24.80
2022-10-01T17:49:55.640Z,24.80
2022-10-01T17:52:25.276Z,24.70
2022-10-01T17:54:55.010Z,24.70
2022-10-01T17:57:24.834Z,24.70
2022-10-01T17:59:54.383Z,24.60
2022-10-01T18:02:40.982Z,24.60
2022-10-01T18:05:16.062Z,24.60
2022-10-01T18:07:46.964Z,24.60
2022-10-01T18:10:16.891Z,24.50
2022-10-01T18:12:46.994Z,24.50
2022-10-01T18:15:17.261Z,24.50
2022-10-01T18:17:51.422Z,24.60
2022-10-01T18:20:25.166Z,24.50
2022-10-01T18:22:55.137Z,24.50
2022-10-01T18:25:25.079Z,24.50
2022-10-01T18:27:55.029Z,24.50
2022-10-01T18:30:25.028Z,24.50
2022-10-01T18:32:58.605Z,24.50
2022-10-01T18:35:36.449Z,24.50
2022-10-01T18:38:28.949Z,24.50
2022-10-01T18:41:11.655Z,24.40
2022-10-01T18:43:43.072Z,24.40
2022-10-01T18:46:51.829Z,24.40
2022-10-01T18:49:58.671Z,24.40
2022-10-01T18:53:00.409Z,24.40
2022-10-01T18:56:02.903Z,24.40
2022-10-01T18:59:04.644Z,24.40
2022-10-01T19:01:58.999Z,24.30
2022-10-01T19:04:52.805Z,24.40
2022-10-01T19:07:45.181Z,24.40
2022-10-01T19:10:32.899Z,24.40
2022-10-01T19:13:35.553Z,24.30
2022-10-01T19:16:23.296Z,24.30
2022-10-01T19:19:12.971Z,24.30
2022-10-01T19:22:01.840Z,24.30
2022-10-01T19:25:10.586Z,24.30
2022-10-01T19:28:09.854Z,24.30
2022-10-01T19:31:10.825Z,24.30
2022-10-01T19:33:50.766Z,24.30
2022-10-01T19:36:36.243Z,24.30
2022-10-01T19:39:12.891Z,24.30
2022-10-01T19:41:55.289Z,24.30
2022-10-01T19:44:42.203Z,24.30
2022-10-01T19:47:42.246Z,24.30
2022-10-01T19:50:35.570Z,24.30
2022-10-01T19:53:07.226Z,24.30
2022-10-01T19:55:39.089Z,24.30
2022-10-01T19:58:21.788Z,24.30
2022-10-01T20:00:58.540Z,24.30
2022-10-01T20:04:07.505Z,24.30
2022-10-01T20:06:44.670Z,24.30
2022-10-01T20:09:43.751Z,24.30
2022-10-01T20:12:52.760Z,24.30
2022-10-01T20:15:47.955Z,24.30
2022-10-01T20:18:38.305Z,24.30
2022-10-01T20:21:37.282Z,24.30
2022-10-01T20:24:34.852Z,24.30
2022-10-01T20:27:35.088Z,24.30
2022-10-01T20:30:10.524Z,24.30
2022-10-01T20:33:03.923Z,24.30
2022-10-01T20:36:12.766Z,24.30
2022-10-01T20:39:05.532Z,24.30
2022-10-01T20:41:43.024Z,24.30
2022-10-01T20:44:23.489Z,24.30
2022-10-01T20:47:24.559Z,24.30
2022-10-01T20:50:09.445Z,24.30
2022-10-01T20:53:18.473Z,24.30
2022-10-01T20:56:03.094Z,24.30
2022-10-01T20:58:45.202Z,24.30
2022-10-01T21:01:25.418Z,24.20
2022-10-01T21:04:15.015Z,24.30
2022-10-01T21:06:50.834Z,24.20
2022-10-01T21:09:30.387Z,24.20
2022-10-01T21:12:24.632Z,24.20
2022-10-01T21:14:59.609Z,24.20
2022-10-01T21:17:43.375Z,24.20
2022-10-01T21:20:47.943Z,24.20
2022-10-01T21:23:43.934Z,24.20
2022-10-01T21:26:26.296Z,24.20
2022-10-01T21:29:35.631Z,24.20
2022-10-01T21:32:39.678Z,24.20
2022-10-01T21:35:27.628Z,24.20
2022-10-01T21:38:16.288Z,24.20
2022-10-01T21:41:09.294Z,24.20
2022-10-01T21:44:11.082Z,24.20
2022-10-01T21:47:20.085Z,24.20
2022-10-01T21:50:15.709Z,24.20
2022-10-01T21:53:28.146Z,24.20
2022-10-01T21:56:22.348Z,24.20
2022-10-01T21:59:09.691Z,24.20
2022-10-01T22:02:20.601Z,24.20
2022-10-01T22:04:59.385Z,24.20
2022-10-01T22:07:37.205Z,24.20
2022-10-01T22:10:22.654Z,24.20
2022-10-01T22:13:00.224Z,24.20
2022-10-01T22:15:42.759Z,24.20
2022-10-01T22:18:38.970Z,24.20
2022-10-01T22:21:16.064Z,24.20
2022-10-01T22:23:52.160Z,24.20
2022-10-01T22:26:25.272Z,24.20
2022-10-01T22:28:56.717Z,24.20
2022-10-01T22:31:34.804Z,24.20
2022-10-01T22:34:21.642Z,24.20
2022-10-01T22:37:05.411Z,24.20
2022-10-01T22:39:43.921Z,24.10
2022-10-01T22:42:27.141Z,24.10
2022-10-01T22:44:57.881Z,24.10
2022-10-01T22:47:57.555Z,24.20
2022-10-01T22:50:53.171Z,24.20
2022-10-01T22:53:36.648Z,24.10
2022-10-01T22:56:06.549Z,24.20
2022-10-01T22:59:11.041Z,24.10
2022-10-01T23:02:09.703Z,24.10
2022-10-01T23:05:11.500Z,24.10
2022-10-01T23:08:00.121Z,24.10
2022-10-01T23:10:43.845Z,24.10
2022-10-01T23:13:53.076Z,24.20
2022-10-01T23:16:55.448Z,24.20
2022-10-01T23:19:56.785Z,24.10
2022-10-01T23:22:52.210Z,24.10
2022-10-01T23:25:42.035Z,24.10
2022-10-01T23:28:40.720Z,24.10
2022-10-01T23:31:36.789Z,24.10
2022-10-01T23:34:45.551Z,24.10
2022-10-01T23:37:54.253Z,24.10
2022-10-01T23:40:28.225Z,24.10
2022-10-01T23:43:25.953Z,24.10
2022-10-01T23:46:04.391Z,24.10
2022-10-01T23:48:48.171Z,24.20
2022-10-01T23:51:45.055Z,24.10
2022-10-01T23:54:35.201Z,24.10
2022-10-01T23:57:34.085Z,24.10
